createdAt,value
2019-02-07T00:00:53.994Z,57.00
2019-02-07T00:05:59.263Z,57.10
2019-02-07T00:11:05.054Z,57.20
2019-02-07T00:16:09.627Z,57.10
2019-02-07T00:21:14.485Z,57.20
2019-02-07T00:26:18.973Z,57.40
2019-02-07T00:31:23.585Z,57.40
2019-02-07T00:36:27.779Z,57.40
2019-02-07T00:41:32.166Z,57.40
2019-02-07T00:46:36.428Z,57.90
2019-02-07T00:51:40.602Z,58.10
2019-02-07T00:56:45.702Z,58.10
2019-02-07T01:01:49.957Z,58.20
2019-02-07T01:06:55.294Z,58.30
2019-02-07T01:11:59.643Z,58.40
2019-02-07T01:17:04.033Z,58.40
2019-02-07T01:22:08.902Z,58.40
2019-02-07T01:27:13.869Z,58.40
2019-02-07T01:32:18.250Z,58.70
2019-02-07T01:37:22.662Z,58.70
2019-02-07T01:42:26.854Z,58.80
2019-02-07T01:47:31.035Z,58.90
2019-02-07T01:52:35.421Z,59.20
2019-02-07T01:57:39.634Z,59.50
2019-02-07T02:02:43.882Z,59.90
2019-02-07T02:07:48.117Z,60.20
2019-02-07T02:12:52.372Z,60.90
2019-02-07T02:17:56.586Z,61.40
2019-02-07T02:23:01.461Z,61.70
2019-02-07T02:28:05.671Z,61.80
2019-02-07T02:33:10.107Z,61.70
2019-02-07T02:38:14.787Z,61.80
2019-02-07T02:43:19.243Z,62.00
2019-02-07T02:48:23.834Z,61.80
2019-02-07T02:53:28.210Z,61.50
2019-02-07T02:58:32.443Z,61.40
2019-02-07T03:03:36.946Z,61.20
2019-02-07T03:08:41.627Z,61.10
2019-02-07T03:13:45.880Z,61.00
2019-02-07T03:18:50.142Z,60.90
2019-02-07T03:23:54.598Z,60.70
2019-02-07T03:28:58.771Z,60.60
2019-02-07T03:34:03.650Z,60.60
2019-02-07T03:39:09.162Z,60.40
2019-02-07T03:44:13.922Z,60.40
2019-02-07T03:49:18.307Z,60.40
2019-02-07T03:54:22.689Z,60.40
2019-02-07T03:59:27.542Z,60.50
2019-02-07T04:04:31.943Z,60.60
2019-02-07T04:09:36.463Z,60.90
2019-02-07T04:14:41.177Z,60.90
2019-02-07T04:19:45.629Z,60.70
2019-02-07T04:24:49.907Z,60.50
2019-02-07T04:29:54.388Z,60.40
2019-02-07T04:34:59.376Z,60.30
2019-02-07T04:40:06.437Z,60.40
2019-02-07T04:45:11.809Z,60.20
2019-02-07T04:50:16.429Z,60.20
2019-02-07T04:55:20.802Z,60.20
2019-02-07T05:00:25.015Z,60.50
2019-02-07T05:05:29.432Z,60.40
2019-02-07T05:10:34.252Z,60.40
2019-02-07T05:15:38.531Z,60.60
2019-02-07T05:20:42.818Z,61.00
2019-02-07T05:25:47.020Z,61.20
2019-02-07T05:30:52.828Z,61.50
2019-02-07T05:35:57.290Z,61.40
2019-02-07T05:41:02.061Z,61.60
2019-02-07T05:46:06.763Z,61.90
2019-02-07T05:51:11.063Z,61.80
2019-02-07T05:56:15.478Z,61.80
2019-02-07T06:01:20.250Z,61.50
2019-02-07T06:06:24.630Z,61.60
2019-02-07T06:11:29.454Z,62.30
2019-02-07T06:16:33.727Z,61.50
2019-02-07T06:21:38.501Z,61.40
2019-02-07T06:26:42.727Z,61.40
2019-02-07T06:31:46.997Z,61.60
2019-02-07T06:36:51.308Z,61.60
2019-02-07T06:41:55.910Z,61.40
2019-02-07T06:47:00.087Z,61.40
2019-02-07T06:52:04.582Z,61.40
2019-02-07T06:57:09.079Z,61.40
2019-02-07T07:02:13.486Z,61.30
2019-02-07T07:07:17.794Z,61.20
2019-02-07T07:12:22.347Z,61.20
2019-02-07T07:17:27.444Z,61.40
2019-02-07T07:22:32.005Z,55.90
2019-02-07T07:27:36.494Z,54.40
2019-02-07T07:32:40.721Z,53.50
2019-02-07T07:37:45.008Z,52.40
2019-02-07T07:42:49.509Z,51.20
2019-02-07T07:47:53.725Z,50.60
2019-02-07T07:52:58.044Z,50.30
2019-02-07T07:58:02.328Z,50.30
2019-02-07T08:03:06.815Z,50.20
2019-02-07T08:08:11.057Z,50.00
2019-02-07T08:13:15.976Z,49.70
2019-02-07T08:18:20.177Z,49.40
2019-02-07T08:23:27.592Z,49.30
2019-02-07T08:28:31.845Z,49.50
2019-02-07T08:33:39.196Z,48.90
2019-02-07T08:38:42.424Z,48.80
2019-02-07T08:43:46.749Z,49.10
2019-02-07T08:48:51.031Z,49.10
2019-02-07T08:53:55.430Z,49.10
2019-02-07T08:58:59.857Z,49.10
2019-02-07T09:04:04.489Z,48.90
2019-02-07T09:09:11.423Z,48.80
2019-02-07T09:14:15.846Z,48.70
2019-02-07T09:19:20.058Z,48.50
2019-02-07T09:24:24.682Z,48.40
2019-02-07T09:29:29.175Z,48.00
2019-02-07T09:34:33.981Z,47.80
2019-02-07T09:39:38.284Z,47.60
2019-02-07T09:44:42.905Z,47.50
2019-02-07T09:49:47.236Z,47.50
2019-02-07T09:54:51.450Z,47.50
2019-02-07T09:59:55.750Z,47.40
2019-02-07T10:04:59.963Z,47.40
2019-02-07T10:10:05.422Z,47.30
2019-02-07T10:15:09.878Z,48.00
2019-02-07T10:20:15.171Z,47.50
2019-02-07T10:25:19.678Z,47.70
2019-02-07T10:30:24.079Z,47.70
2019-02-07T10:35:28.975Z,47.80
2019-02-07T10:40:34.802Z,47.70
2019-02-07T10:45:39.518Z,47.70
2019-02-07T10:50:43.809Z,47.50
2019-02-07T10:55:48.053Z,47.50
2019-02-07T11:00:52.874Z,47.40
2019-02-07T11:05:57.295Z,47.70
2019-02-07T11:11:02.834Z,47.80
2019-02-07T11:16:07.336Z,47.80
2019-02-07T11:21:11.734Z,47.80
2019-02-07T11:26:16.239Z,47.80
2019-02-07T11:31:20.530Z,48.10
2019-02-07T11:36:24.738Z,47.60
2019-02-07T11:41:30.623Z,48.10
2019-02-07T11:46:37.587Z,48.60
2019-02-07T11:51:42.295Z,48.00
2019-02-07T11:56:47.390Z,48.20
2019-02-07T12:01:51.727Z,48.50
2019-02-07T12:06:56.127Z,48.50
2019-02-07T12:12:00.386Z,48.40
2019-02-07T12:17:05.650Z,48.40
2019-02-07T12:22:10.754Z,48.10
2019-02-07T12:27:15.214Z,48.60
2019-02-07T12:32:20.221Z,48.80
2019-02-07T12:37:24.443Z,49.00
2019-02-07T12:42:28.837Z,49.10
2019-02-07T12:47:33.363Z,49.20
2019-02-07T12:52:37.748Z,49.20
2019-02-07T12:57:41.956Z,49.30
2019-02-07T13:02:46.437Z,50.10
2019-02-07T13:07:51.434Z,49.40
2019-02-07T13:12:55.810Z,50.10
2019-02-07T13:18:00.350Z,49.40
2019-02-07T13:23:05.836Z,49.30
2019-02-07T13:28:10.355Z,49.40
2019-02-07T13:33:15.231Z,49.80
2019-02-07T13:38:19.916Z,49.50
2019-02-07T13:43:25.292Z,49.70
2019-02-07T13:48:29.769Z,49.60
2019-02-07T13:53:34.292Z,49.50
2019-02-07T13:58:38.581Z,49.20
2019-02-07T14:03:42.801Z,48.80
2019-02-07T14:08:47.300Z,48.70
2019-02-07T14:13:51.610Z,48.70
2019-02-07T14:18:56.515Z,48.80
2019-02-07T14:24:00.829Z,48.90
2019-02-07T14:29:05.409Z,49.10
2019-02-07T14:34:09.986Z,48.80
2019-02-07T14:39:15.818Z,48.80
2019-02-07T14:44:20.299Z,48.80
2019-02-07T14:49:25.047Z,48.90
2019-02-07T14:54:29.737Z,49.00
2019-02-07T14:59:34.183Z,49.00
2019-02-07T15:04:39.695Z,49.20
2019-02-07T15:09:44.291Z,48.90
2019-02-07T15:14:48.874Z,48.80
2019-02-07T15:19:53.082Z,48.90
2019-02-07T15:24:57.701Z,48.80
2019-02-07T15:30:02.024Z,48.80
2019-02-07T15:35:11.040Z,48.70
2019-02-07T15:40:17.926Z,48.50
2019-02-07T15:45:22.475Z,48.70
2019-02-07T15:50:37.680Z,48.60
2019-02-07T15:55:33.970Z,48.70
2019-02-07T16:00:38.745Z,48.70
2019-02-07T16:05:43.842Z,48.70
2019-02-07T16:10:48.233Z,49.10
2019-02-07T16:15:52.509Z,49.20
2019-02-07T16:20:56.756Z,49.70
2019-02-07T16:26:01.158Z,49.70
2019-02-07T16:31:06.282Z,49.30
2019-02-07T16:36:10.574Z,49.30
2019-02-07T16:41:15.169Z,49.60
2019-02-07T16:46:19.586Z,50.30
2019-02-07T16:51:26.227Z,50.60
2019-02-07T16:56:30.429Z,50.70
2019-02-07T17:01:34.722Z,50.90
2019-02-07T17:06:42.937Z,50.90
2019-02-07T17:11:47.638Z,50.70
2019-02-07T17:16:51.956Z,51.10
2019-02-07T17:21:56.306Z,51.20
2019-02-07T17:27:00.660Z,51.20
2019-02-07T17:32:12.338Z,51.60
2019-02-07T17:37:19.161Z,52.00
2019-02-07T17:42:23.835Z,51.90
2019-02-07T17:47:28.221Z,52.00
2019-02-07T17:52:32.593Z,51.90
2019-02-07T17:57:36.947Z,51.90
2019-02-07T18:02:41.508Z,52.00
2019-02-07T18:07:45.776Z,51.90
2019-02-07T18:12:49.954Z,51.90
2019-02-07T18:17:55.511Z,51.90
2019-02-07T18:22:59.771Z,52.10
2019-02-07T18:28:04.167Z,52.30
2019-02-07T18:33:08.722Z,52.40
2019-02-07T18:38:13.282Z,52.40
2019-02-07T18:43:17.988Z,52.70
2019-02-07T18:48:22.273Z,52.80
2019-02-07T18:53:26.873Z,52.60
2019-02-07T18:58:31.541Z,53.50
2019-02-07T19:03:35.905Z,54.00
2019-02-07T19:08:40.782Z,54.30
2019-02-07T19:13:45.654Z,55.40
2019-02-07T19:18:50.043Z,56.10
2019-02-07T19:23:54.682Z,56.60
2019-02-07T19:28:58.976Z,56.40
2019-02-07T19:34:03.537Z,56.10
2019-02-07T19:39:09.739Z,55.70
2019-02-07T19:44:14.286Z,55.50
2019-02-07T19:49:22.147Z,55.10
2019-02-07T19:54:26.594Z,55.10
2019-02-07T19:59:30.765Z,55.20
2019-02-07T20:04:35.472Z,55.10
2019-02-07T20:09:39.740Z,55.10
2019-02-07T20:14:44.094Z,56.00
2019-02-07T20:19:48.482Z,56.80
2019-02-07T20:24:56.144Z,58.00
2019-02-07T20:30:00.514Z,57.90
2019-02-07T20:35:06.306Z,58.30
2019-02-07T20:40:13.404Z,58.40
2019-02-07T20:45:19.197Z,58.80
2019-02-07T20:50:24.750Z,59.10
2019-02-07T20:55:29.121Z,59.30
2019-02-07T21:00:35.770Z,59.50
2019-02-07T21:05:40.122Z,59.60
2019-02-07T21:10:45.513Z,59.80
2019-02-07T21:15:49.858Z,59.90
2019-02-07T21:20:54.634Z,59.50
2019-02-07T21:25:59.074Z,59.20
2019-02-07T21:31:04.924Z,58.70
2019-02-07T21:36:09.197Z,58.30
2019-02-07T21:41:14.975Z,57.80
2019-02-07T21:46:19.546Z,56.90
2019-02-07T21:51:23.742Z,57.20
2019-02-07T21:56:28.241Z,56.70
2019-02-07T22:01:32.415Z,56.60
2019-02-07T22:06:36.980Z,56.50
2019-02-07T22:11:41.437Z,56.40
2019-02-07T22:16:45.696Z,56.30
2019-02-07T22:21:49.890Z,56.10
2019-02-07T22:26:54.758Z,56.50
2019-02-07T22:31:58.969Z,56.50
2019-02-07T22:37:03.166Z,56.90
2019-02-07T22:42:07.555Z,57.20
2019-02-07T22:47:11.903Z,57.50
2019-02-07T22:52:16.406Z,57.70
2019-02-07T22:57:20.809Z,57.80
2019-02-07T23:02:25.131Z,58.00
2019-02-07T23:07:29.596Z,57.90
2019-02-07T23:12:33.949Z,58.20
2019-02-07T23:17:38.335Z,58.50
2019-02-07T23:22:42.692Z,58.90
2019-02-07T23:27:47.992Z,59.00
2019-02-07T23:32:52.693Z,59.00
2019-02-07T23:37:56.950Z,59.20
2019-02-07T23:43:01.785Z,59.20
2019-02-07T23:48:06.140Z,59.30
2019-02-07T23:53:14.770Z,59.10
2019-02-07T23:58:16.683Z,59.30
